sensor_id;sensor_type;location;lat;lon;timestamp;temperature;humidity
21616;DHT22;10970;48.714;9.584;2022-08-19T00:00:09;19.80;99.90
21616;DHT22;10970;48.714;9.584;2022-08-19T00:02:36;19.70;99.90
21616;DHT22;10970;48.714;9.584;2022-08-19T00:05:03;19.70;99.90
21616;DHT22;10970;48.714;9.584;2022-08-19T00:07:28;19.70;99.90
21616;DHT22;10970;48.714;9.584;2022-08-19T00:09:54;19.70;99.90
21616;DHT22;10970;48.714;9.584;2022-08-19T00:12:20;19.70;99.90
21616;DHT22;10970;48.714;9.584;2022-08-19T00:14:45;19.60;99.90
21616;DHT22;10970;48.714;9.584;2022-08-19T00:17:11;19.60;99.90
21616;DHT22;10970;48.714;9.584;2022-08-19T00:19:38;19.60;99.90
21616;DHT22;10970;48.714;9.584;2022-08-19T00:22:04;19.50;99.90
21616;DHT22;10970;48.714;9.584;2022-08-19T00:24:31;19.50;99.90
21616;DHT22;10970;48.714;9.584;2022-08-19T00:26:57;19.50;99.90
21616;DHT22;10970;48.714;9.584;2022-08-19T00:29:23;19.50;99.90
21616;DHT22;10970;48.714;9.584;2022-08-19T00:31:52;19.50;99.90
21616;DHT22;10970;48.714;9.584;2022-08-19T00:34:21;19.40;99.90
21616;DHT22;10970;48.714;9.584;2022-08-19T00:36:47;19.50;99.90
21616;DHT22;10970;48.714;9.584;2022-08-19T00:39:14;19.40;99.90
21616;DHT22;10970;48.714;9.584;2022-08-19T00:41:41;19.40;99.90
21616;DHT22;10970;48.714;9.584;2022-08-19T00:44:22;19.40;99.90
21616;DHT22;10970;48.714;9.584;2022-08-19T00:46:51;19.40;99.90
21616;DHT22;10970;48.714;9.584;2022-08-19T00:51:55;19.30;99.90
21616;DHT22;10970;48.714;9.584;2022-08-19T00:54:23;19.30;99.90
21616;DHT22;10970;48.714;9.584;2022-08-19T00:56:49;19.20;99.90
21616;DHT22;10970;48.714;9.584;2022-08-19T00:59:16;19.30;99.90
21616;DHT22;10970;48.714;9.584;2022-08-19T01:01:44;19.20;99.90
21616;DHT22;10970;48.714;9.584;2022-08-19T01:04:11;19.20;99.90
21616;DHT22;10970;48.714;9.584;2022-08-19T01:06:38;19.20;99.90
21616;DHT22;10970;48.714;9.584;2022-08-19T01:09:05;19.20;99.90
21616;DHT22;10970;48.714;9.584;2022-08-19T01:11:34;19.20;99.90
21616;DHT22;10970;48.714;9.584;2022-08-19T01:14:00;19.20;99.90
21616;DHT22;10970;48.714;9.584;2022-08-19T01:16:27;19.20;99.90
21616;DHT22;10970;48.714;9.584;2022-08-19T01:18:54;19.20;99.90
21616;DHT22;10970;48.714;9.584;2022-08-19T01:23:47;19.10;99.90
21616;DHT22;10970;48.714;9.584;2022-08-19T01:26:19;19.10;99.90
21616;DHT22;10970;48.714;9.584;2022-08-19T01:28:49;19.10;99.90
21616;DHT22;10970;48.714;9.584;2022-08-19T01:31:18;19.10;99.90
21616;DHT22;10970;48.714;9.584;2022-08-19T01:33:45;19.10;99.90
21616;DHT22;10970;48.714;9.584;2022-08-19T01:36:15;19.10;99.90
21616;DHT22;10970;48.714;9.584;2022-08-19T01:38:43;19.20;99.90
21616;DHT22;10970;48.714;9.584;2022-08-19T01:41:10;19.20;99.90
21616;DHT22;10970;48.714;9.584;2022-08-19T01:43:36;19.20;99.90
21616;DHT22;10970;48.714;9.584;2022-08-19T01:46:02;19.10;99.90
21616;DHT22;10970;48.714;9.584;2022-08-19T01:48:34;19.20;99.90
21616;DHT22;10970;48.714;9.584;2022-08-19T01:51:00;19.20;99.90
21616;DHT22;10970;48.714;9.584;2022-08-19T01:53:26;19.20;99.90
21616;DHT22;10970;48.714;9.584;2022-08-19T01:55:51;19.10;99.90
21616;DHT22;10970;48.714;9.584;2022-08-19T01:58:32;19.10;99.90
21616;DHT22;10970;48.714;9.584;2022-08-19T02:01:02;19.10;99.90
21616;DHT22;10970;48.714;9.584;2022-08-19T02:03:28;19.10;99.90
21616;DHT22;10970;48.714;9.584;2022-08-19T02:05:56;19.20;99.90
21616;DHT22;10970;48.714;9.584;2022-08-19T02:08:23;19.10;99.90
21616;DHT22;10970;48.714;9.584;2022-08-19T02:10:49;19.10;99.90
21616;DHT22;10970;48.714;9.584;2022-08-19T02:13:15;19.00;99.90
21616;DHT22;10970;48.714;9.584;2022-08-19T02:15:41;19.00;99.90
21616;DHT22;10970;48.714;9.584;2022-08-19T02:18:07;19.00;99.90
21616;DHT22;10970;48.714;9.584;2022-08-19T02:20:33;19.00;99.90
21616;DHT22;10970;48.714;9.584;2022-08-19T02:22:59;18.90;99.90
21616;DHT22;10970;48.714;9.584;2022-08-19T02:25:27;19.00;99.90
21616;DHT22;10970;48.714;9.584;2022-08-19T02:27:52;18.90;99.90
21616;DHT22;10970;48.714;9.584;2022-08-19T02:30:19;18.90;99.90
21616;DHT22;10970;48.714;9.584;2022-08-19T02:35:14;18.90;99.90
21616;DHT22;10970;48.714;9.584;2022-08-19T02:37:42;18.90;99.90
21616;DHT22;10970;48.714;9.584;2022-08-19T02:40:27;18.90;99.90
21616;DHT22;10970;48.714;9.584;2022-08-19T02:42:53;18.90;99.90
21616;DHT22;10970;48.714;9.584;2022-08-19T02:45:18;18.90;99.90
21616;DHT22;10970;48.714;9.584;2022-08-19T02:47:45;18.70;99.90
21616;DHT22;10970;48.714;9.584;2022-08-19T02:50:10;18.70;99.90
21616;DHT22;10970;48.714;9.584;2022-08-19T02:52:36;18.70;99.90
21616;DHT22;10970;48.714;9.584;2022-08-19T02:55:03;18.70;99.90
21616;DHT22;10970;48.714;9.584;2022-08-19T02:57:30;17.80;99.90
21616;DHT22;10970;48.714;9.584;2022-08-19T02:59:57;18.70;99.90
21616;DHT22;10970;48.714;9.584;2022-08-19T03:02:22;18.80;99.90
21616;DHT22;10970;48.714;9.584;2022-08-19T03:04:48;18.70;99.90
21616;DHT22;10970;48.714;9.584;2022-08-19T03:07:15;18.70;99.90
21616;DHT22;10970;48.714;9.584;2022-08-19T03:09:41;18.70;99.90
21616;DHT22;10970;48.714;9.584;2022-08-19T03:12:08;18.80;99.90
21616;DHT22;10970;48.714;9.584;2022-08-19T03:14:34;18.80;99.90
21616;DHT22;10970;48.714;9.584;2022-08-19T03:17:01;18.70;99.90
21616;DHT22;10970;48.714;9.584;2022-08-19T03:19:26;18.70;99.90
21616;DHT22;10970;48.714;9.584;2022-08-19T03:21:53;18.70;99.90
21616;DHT22;10970;48.714;9.584;2022-08-19T03:24:19;18.60;99.90
21616;DHT22;10970;48.714;9.584;2022-08-19T03:26:53;18.60;99.90
21616;DHT22;10970;48.714;9.584;2022-08-19T03:29:24;18.50;99.90
21616;DHT22;10970;48.714;9.584;2022-08-19T03:31:50;18.60;99.90
21616;DHT22;10970;48.714;9.584;2022-08-19T03:34:25;18.60;99.90
21616;DHT22;10970;48.714;9.584;2022-08-19T03:36:56;18.60;99.90
21616;DHT22;10970;48.714;9.584;2022-08-19T03:39:23;18.60;99.90
21616;DHT22;10970;48.714;9.584;2022-08-19T03:41:51;18.50;99.90
21616;DHT22;10970;48.714;9.584;2022-08-19T03:44:19;18.50;99.90
21616;DHT22;10970;48.714;9.584;2022-08-19T03:46:56;18.40;99.90
21616;DHT22;10970;48.714;9.584;2022-08-19T03:49:23;18.50;99.90
21616;DHT22;10970;48.714;9.584;2022-08-19T03:51:49;18.50;99.90
21616;DHT22;10970;48.714;9.584;2022-08-19T03:54:18;18.50;99.90
21616;DHT22;10970;48.714;9.584;2022-08-19T03:56:46;18.50;99.90
21616;DHT22;10970;48.714;9.584;2022-08-19T03:59:17;18.30;99.90
21616;DHT22;10970;48.714;9.584;2022-08-19T04:04:10;18.40;99.90
21616;DHT22;10970;48.714;9.584;2022-08-19T04:06:37;18.40;99.90
21616;DHT22;10970;48.714;9.584;2022-08-19T04:09:07;18.40;99.90
21616;DHT22;10970;48.714;9.584;2022-08-19T04:11:56;18.40;99.90
21616;DHT22;10970;48.714;9.584;2022-08-19T04:14:24;18.40;99.90
21616;DHT22;10970;48.714;9.584;2022-08-19T04:16:51;18.40;99.90
21616;DHT22;10970;48.714;9.584;2022-08-19T04:19:18;18.40;99.90
21616;DHT22;10970;48.714;9.584;2022-08-19T04:21:45;18.30;99.90
21616;DHT22;10970;48.714;9.584;2022-08-19T04:24:14;18.30;99.90
21616;DHT22;10970;48.714;9.584;2022-08-19T04:26:40;18.30;99.90
21616;DHT22;10970;48.714;9.584;2022-08-19T04:29:09;18.30;99.90
21616;DHT22;10970;48.714;9.584;2022-08-19T04:31:35;18.30;99.90
21616;DHT22;10970;48.714;9.584;2022-08-19T04:34:06;18.40;99.90
21616;DHT22;10970;48.714;9.584;2022-08-19T04:36:35;18.40;99.90
21616;DHT22;10970;48.714;9.584;2022-08-19T04:39:10;18.40;99.90
21616;DHT22;10970;48.714;9.584;2022-08-19T04:41:36;18.30;99.90
21616;DHT22;10970;48.714;9.584;2022-08-19T04:44:21;18.40;99.90
21616;DHT22;10970;48.714;9.584;2022-08-19T04:46:48;18.40;99.90
21616;DHT22;10970;48.714;9.584;2022-08-19T04:49:15;18.40;99.90
21616;DHT22;10970;48.714;9.584;2022-08-19T04:51:44;18.40;99.90
21616;DHT22;10970;48.714;9.584;2022-08-19T04:54:11;18.40;99.90
21616;DHT22;10970;48.714;9.584;2022-08-19T04:56:38;18.50;99.90
21616;DHT22;10970;48.714;9.584;2022-08-19T04:59:04;18.40;99.90
21616;DHT22;10970;48.714;9.584;2022-08-19T05:01:31;18.30;99.90
21616;DHT22;10970;48.714;9.584;2022-08-19T05:04:02;18.40;99.90
21616;DHT22;10970;48.714;9.584;2022-08-19T05:06:30;18.50;99.90
21616;DHT22;10970;48.714;9.584;2022-08-19T05:08:56;18.50;99.90
21616;DHT22;10970;48.714;9.584;2022-08-19T05:11:28;18.60;99.90
21616;DHT22;10970;48.714;9.584;2022-08-19T05:13:54;18.60;99.90
21616;DHT22;10970;48.714;9.584;2022-08-19T05:16:22;18.60;99.90
21616;DHT22;10970;48.714;9.584;2022-08-19T05:18:49;18.60;99.90
21616;DHT22;10970;48.714;9.584;2022-08-19T05:21:34;18.60;99.90
21616;DHT22;10970;48.714;9.584;2022-08-19T05:24:22;18.60;99.90
21616;DHT22;10970;48.714;9.584;2022-08-19T05:26:50;18.70;99.90
21616;DHT22;10970;48.714;9.584;2022-08-19T05:29:19;18.60;99.90
21616;DHT22;10970;48.714;9.584;2022-08-19T05:31:46;18.70;99.90
21616;DHT22;10970;48.714;9.584;2022-08-19T05:34:15;18.60;99.90
21616;DHT22;10970;48.714;9.584;2022-08-19T05:36:42;18.60;99.90
21616;DHT22;10970;48.714;9.584;2022-08-19T05:39:14;18.50;99.90
21616;DHT22;10970;48.714;9.584;2022-08-19T05:41:47;18.50;99.90
21616;DHT22;10970;48.714;9.584;2022-08-19T05:44:14;18.60;99.90
21616;DHT22;10970;48.714;9.584;2022-08-19T05:46:40;18.60;99.90
21616;DHT22;10970;48.714;9.584;2022-08-19T05:49:06;18.60;99.90
21616;DHT22;10970;48.714;9.584;2022-08-19T05:51:34;18.50;99.90
21616;DHT22;10970;48.714;9.584;2022-08-19T05:54:01;18.50;99.90
21616;DHT22;10970;48.714;9.584;2022-08-19T05:56:27;18.50;99.90
21616;DHT22;10970;48.714;9.584;2022-08-19T05:58:56;18.50;99.90
21616;DHT22;10970;48.714;9.584;2022-08-19T06:01:25;18.50;99.90
21616;DHT22;10970;48.714;9.584;2022-08-19T06:03:51;18.50;99.90
21616;DHT22;10970;48.714;9.584;2022-08-19T06:06:18;18.50;99.90
21616;DHT22;10970;48.714;9.584;2022-08-19T06:08:45;18.50;99.90
21616;DHT22;10970;48.714;9.584;2022-08-19T06:13:41;18.70;99.90
21616;DHT22;10970;48.714;9.584;2022-08-19T06:16:06;18.70;99.90
21616;DHT22;10970;48.714;9.584;2022-08-19T06:18:32;18.60;99.90
21616;DHT22;10970;48.714;9.584;2022-08-19T06:20:59;18.60;99.90
21616;DHT22;10970;48.714;9.584;2022-08-19T06:23:25;18.70;99.90
21616;DHT22;10970;48.714;9.584;2022-08-19T06:25:51;18.70;99.90
21616;DHT22;10970;48.714;9.584;2022-08-19T06:28:16;18.70;99.90
21616;DHT22;10970;48.714;9.584;2022-08-19T06:30:42;18.70;99.90
21616;DHT22;10970;48.714;9.584;2022-08-19T06:33:08;18.80;99.90
21616;DHT22;10970;48.714;9.584;2022-08-19T06:35:39;18.70;99.90
21616;DHT22;10970;48.714;9.584;2022-08-19T06:38:05;18.80;99.90
21616;DHT22;10970;48.714;9.584;2022-08-19T06:40:30;18.70;99.90
21616;DHT22;10970;48.714;9.584;2022-08-19T06:42:56;18.70;99.90
21616;DHT22;10970;48.714;9.584;2022-08-19T06:45:24;18.70;99.90
21616;DHT22;10970;48.714;9.584;2022-08-19T06:47:50;18.70;99.90
21616;DHT22;10970;48.714;9.584;2022-08-19T06:50:17;18.60;99.90
21616;DHT22;10970;48.714;9.584;2022-08-19T06:52:44;18.60;99.90
21616;DHT22;10970;48.714;9.584;2022-08-19T06:55:09;18.60;99.90
21616;DHT22;10970;48.714;9.584;2022-08-19T06:57:35;18.60;99.90
21616;DHT22;10970;48.714;9.584;2022-08-19T07:00:01;18.60;99.90
21616;DHT22;10970;48.714;9.584;2022-08-19T07:02:27;18.60;99.90
21616;DHT22;10970;48.714;9.584;2022-08-19T07:04:53;18.60;99.90
21616;DHT22;10970;48.714;9.584;2022-08-19T07:07:20;18.60;99.90
21616;DHT22;10970;48.714;9.584;2022-08-19T07:09:47;18.60;99.90
21616;DHT22;10970;48.714;9.584;2022-08-19T07:12:13;18.60;99.90
21616;DHT22;10970;48.714;9.584;2022-08-19T07:14:43;18.60;99.90
21616;DHT22;10970;48.714;9.584;2022-08-19T07:17:12;18.60;99.90
21616;DHT22;10970;48.714;9.584;2022-08-19T07:19:39;18.70;99.90
21616;DHT22;10970;48.714;9.584;2022-08-19T07:22:06;18.70;99.90
21616;DHT22;10970;48.714;9.584;2022-08-19T07:24:32;18.70;99.90
21616;DHT22;10970;48.714;9.584;2022-08-19T07:27:00;18.70;99.90
21616;DHT22;10970;48.714;9.584;2022-08-19T07:29:30;18.70;99.90
21616;DHT22;10970;48.714;9.584;2022-08-19T07:31:56;18.70;99.90
21616;DHT22;10970;48.714;9.584;2022-08-19T07:34:23;18.70;99.90
21616;DHT22;10970;48.714;9.584;2022-08-19T07:36:49;18.70;99.90
21616;DHT22;10970;48.714;9.584;2022-08-19T07:39:22;18.70;99.90
21616;DHT22;10970;48.714;9.584;2022-08-19T07:41:48;18.70;99.90
21616;DHT22;10970;48.714;9.584;2022-08-19T07:44:16;18.70;99.90
21616;DHT22;10970;48.714;9.584;2022-08-19T07:46:45;18.60;99.90
21616;DHT22;10970;48.714;9.584;2022-08-19T07:49:12;18.70;99.90
21616;DHT22;10970;48.714;9.584;2022-08-19T07:51:57;18.70;99.90
21616;DHT22;10970;48.714;9.584;2022-08-19T07:54:25;18.60;99.90
21616;DHT22;10970;48.714;9.584;2022-08-19T07:56:52;18.60;99.90
21616;DHT22;10970;48.714;9.584;2022-08-19T07:59:20;18.60;99.90
21616;DHT22;10970;48.714;9.584;2022-08-19T08:01:46;18.70;99.90
21616;DHT22;10970;48.714;9.584;2022-08-19T08:04:13;18.70;99.90
21616;DHT22;10970;48.714;9.584;2022-08-19T08:06:58;18.70;99.90
21616;DHT22;10970;48.714;9.584;2022-08-19T08:09:43;18.70;99.90
21616;DHT22;10970;48.714;9.584;2022-08-19T08:12:21;18.60;99.90
21616;DHT22;10970;48.714;9.584;2022-08-19T08:14:54;18.60;99.90
21616;DHT22;10970;48.714;9.584;2022-08-19T08:17:23;18.60;99.90
21616;DHT22;10970;48.714;9.584;2022-08-19T08:19:49;18.60;99.90
21616;DHT22;10970;48.714;9.584;2022-08-19T08:22:19;18.60;99.90
21616;DHT22;10970;48.714;9.584;2022-08-19T08:25:16;18.70;99.90
21616;DHT22;10970;48.714;9.584;2022-08-19T08:27:44;18.70;99.90
21616;DHT22;10970;48.714;9.584;2022-08-19T08:30:16;18.70;99.90
21616;DHT22;10970;48.714;9.584;2022-08-19T08:32:43;18.80;99.90
21616;DHT22;10970;48.714;9.584;2022-08-19T08:35:13;18.80;99.90
21616;DHT22;10970;48.714;9.584;2022-08-19T08:37:39;18.90;99.90
21616;DHT22;10970;48.714;9.584;2022-08-19T08:40:29;19.00;99.90
21616;DHT22;10970;48.714;9.584;2022-08-19T08:43:22;18.90;99.90
21616;DHT22;10970;48.714;9.584;2022-08-19T08:46:13;19.00;99.90
21616;DHT22;10970;48.714;9.584;2022-08-19T08:49:06;19.00;99.90
21616;DHT22;10970;48.714;9.584;2022-08-19T08:52:07;18.90;99.90
21616;DHT22;10970;48.714;9.584;2022-08-19T08:54:45;19.00;99.90
21616;DHT22;10970;48.714;9.584;2022-08-19T08:57:29;19.00;99.90
21616;DHT22;10970;48.714;9.584;2022-08-19T08:59:57;19.10;99.90
21616;DHT22;10970;48.714;9.584;2022-08-19T09:02:25;19.10;99.90
21616;DHT22;10970;48.714;9.584;2022-08-19T09:04:54;19.00;99.90
21616;DHT22;10970;48.714;9.584;2022-08-19T09:10:39;19.00;99.90
21616;DHT22;10970;48.714;9.584;2022-08-19T09:16:05;18.90;99.90
21616;DHT22;10970;48.714;9.584;2022-08-19T09:18:46;18.90;99.90
21616;DHT22;10970;48.714;9.584;2022-08-19T09:21:15;18.60;99.90
21616;DHT22;10970;48.714;9.584;2022-08-19T09:23:41;18.90;99.90
21616;DHT22;10970;48.714;9.584;2022-08-19T09:26:13;18.80;99.90
21616;DHT22;10970;48.714;9.584;2022-08-19T09:28:43;18.90;99.90
21616;DHT22;10970;48.714;9.584;2022-08-19T09:31:14;18.90;99.90
21616;DHT22;10970;48.714;9.584;2022-08-19T09:33:40;18.90;99.90
21616;DHT22;10970;48.714;9.584;2022-08-19T09:36:12;18.90;99.90
21616;DHT22;10970;48.714;9.584;2022-08-19T09:38:39;18.90;99.90
21616;DHT22;10970;48.714;9.584;2022-08-19T09:41:08;18.90;99.90
21616;DHT22;10970;48.714;9.584;2022-08-19T09:43:34;19.00;99.90
21616;DHT22;10970;48.714;9.584;2022-08-19T09:46:05;19.00;99.90
21616;DHT22;10970;48.714;9.584;2022-08-19T09:48:35;19.00;99.90
21616;DHT22;10970;48.714;9.584;2022-08-19T09:51:09;19.00;99.90
21616;DHT22;10970;48.714;9.584;2022-08-19T09:53:37;19.20;99.90
21616;DHT22;10970;48.714;9.584;2022-08-19T09:56:04;19.00;99.90
21616;DHT22;10970;48.714;9.584;2022-08-19T09:58:31;19.10;99.90
21616;DHT22;10970;48.714;9.584;2022-08-19T10:00:58;19.10;99.90
21616;DHT22;10970;48.714;9.584;2022-08-19T10:03:26;19.00;99.90
21616;DHT22;10970;48.714;9.584;2022-08-19T10:05:52;19.10;99.90
21616;DHT22;10970;48.714;9.584;2022-08-19T10:08:22;19.10;99.90
21616;DHT22;10970;48.714;9.584;2022-08-19T10:10:49;19.10;99.90
21616;DHT22;10970;48.714;9.584;2022-08-19T10:13:20;19.20;99.90
21616;DHT22;10970;48.714;9.584;2022-08-19T10:15:50;19.30;99.90
21616;DHT22;10970;48.714;9.584;2022-08-19T10:18:18;19.40;99.90
21616;DHT22;10970;48.714;9.584;2022-08-19T10:20:48;19.50;99.90
21616;DHT22;10970;48.714;9.584;2022-08-19T10:23:14;19.60;99.90
21616;DHT22;10970;48.714;9.584;2022-08-19T10:25:41;19.60;99.90
21616;DHT22;10970;48.714;9.584;2022-08-19T10:28:08;19.60;99.90
21616;DHT22;10970;48.714;9.584;2022-08-19T10:30:38;19.70;99.90
21616;DHT22;10970;48.714;9.584;2022-08-19T10:33:04;19.60;99.90
21616;DHT22;10970;48.714;9.584;2022-08-19T10:35:30;19.80;99.90
21616;DHT22;10970;48.714;9.584;2022-08-19T10:37:56;19.90;99.90
21616;DHT22;10970;48.714;9.584;2022-08-19T10:40:27;19.90;99.90
21616;DHT22;10970;48.714;9.584;2022-08-19T10:42:54;19.90;99.90
21616;DHT22;10970;48.714;9.584;2022-08-19T10:45:21;19.90;99.90
21616;DHT22;10970;48.714;9.584;2022-08-19T10:47:49;19.80;99.90
21616;DHT22;10970;48.714;9.584;2022-08-19T10:50:14;19.80;99.90
21616;DHT22;10970;48.714;9.584;2022-08-19T10:53:04;19.90;99.90
21616;DHT22;10970;48.714;9.584;2022-08-19T10:55:30;19.90;99.90
21616;DHT22;10970;48.714;9.584;2022-08-19T10:58:17;19.70;99.90
21616;DHT22;10970;48.714;9.584;2022-08-19T11:00:53;19.80;99.90
21616;DHT22;10970;48.714;9.584;2022-08-19T11:03:19;19.80;99.90
21616;DHT22;10970;48.714;9.584;2022-08-19T11:05:45;19.90;99.90
21616;DHT22;10970;48.714;9.584;2022-08-19T11:08:10;19.90;99.90
21616;DHT22;10970;48.714;9.584;2022-08-19T11:10:40;19.90;99.90
21616;DHT22;10970;48.714;9.584;2022-08-19T11:13:06;19.80;99.90
21616;DHT22;10970;48.714;9.584;2022-08-19T11:15:32;19.70;99.90
21616;DHT22;10970;48.714;9.584;2022-08-19T11:17:58;19.70;99.90
21616;DHT22;10970;48.714;9.584;2022-08-19T11:20:24;19.70;99.90
21616;DHT22;10970;48.714;9.584;2022-08-19T11:22:52;19.60;99.90
21616;DHT22;10970;48.714;9.584;2022-08-19T11:25:19;19.60;99.90
21616;DHT22;10970;48.714;9.584;2022-08-19T11:27:44;19.60;99.90
21616;DHT22;10970;48.714;9.584;2022-08-19T11:30:12;19.70;99.90
21616;DHT22;10970;48.714;9.584;2022-08-19T11:32:41;19.70;99.90
21616;DHT22;10970;48.714;9.584;2022-08-19T11:35:07;19.70;99.90
21616;DHT22;10970;48.714;9.584;2022-08-19T11:37:33;19.60;99.90
21616;DHT22;10970;48.714;9.584;2022-08-19T11:40:03;19.60;99.90
21616;DHT22;10970;48.714;9.584;2022-08-19T11:42:29;19.50;99.90
21616;DHT22;10970;48.714;9.584;2022-08-19T11:45:13;19.50;99.90
21616;DHT22;10970;48.714;9.584;2022-08-19T11:47:39;19.50;99.90
21616;DHT22;10970;48.714;9.584;2022-08-19T11:50:05;19.40;99.90
21616;DHT22;10970;48.714;9.584;2022-08-19T11:52:31;19.30;99.90
21616;DHT22;10970;48.714;9.584;2022-08-19T11:54:56;19.30;99.90
21616;DHT22;10970;48.714;9.584;2022-08-19T11:57:22;19.30;99.90
21616;DHT22;10970;48.714;9.584;2022-08-19T11:59:51;19.30;99.90
21616;DHT22;10970;48.714;9.584;2022-08-19T12:02:18;19.30;99.90
21616;DHT22;10970;48.714;9.584;2022-08-19T12:04:44;19.30;99.90
21616;DHT22;10970;48.714;9.584;2022-08-19T12:07:10;19.30;99.90
21616;DHT22;10970;48.714;9.584;2022-08-19T12:09:35;19.30;99.90
21616;DHT22;10970;48.714;9.584;2022-08-19T12:12:01;19.20;99.90
21616;DHT22;10970;48.714;9.584;2022-08-19T12:14:30;19.50;99.90
21616;DHT22;10970;48.714;9.584;2022-08-19T12:16:56;19.30;99.90
21616;DHT22;10970;48.714;9.584;2022-08-19T12:19:22;19.30;99.90
21616;DHT22;10970;48.714;9.584;2022-08-19T12:21:48;19.30;99.90
21616;DHT22;10970;48.714;9.584;2022-08-19T12:24:14;19.30;99.90
21616;DHT22;10970;48.714;9.584;2022-08-19T12:26:40;19.30;99.90
21616;DHT22;10970;48.714;9.584;2022-08-19T12:29:06;19.20;99.90
21616;DHT22;10970;48.714;9.584;2022-08-19T12:31:33;19.20;99.90
21616;DHT22;10970;48.714;9.584;2022-08-19T12:33:59;19.20;99.90
21616;DHT22;10970;48.714;9.584;2022-08-19T12:36:25;19.20;99.90
21616;DHT22;10970;48.714;9.584;2022-08-19T12:38:52;19.20;99.90
21616;DHT22;10970;48.714;9.584;2022-08-19T12:41:18;19.20;99.90
21616;DHT22;10970;48.714;9.584;2022-08-19T12:43:44;19.20;99.90
21616;DHT22;10970;48.714;9.584;2022-08-19T12:46:11;19.10;99.90
21616;DHT22;10970;48.714;9.584;2022-08-19T12:48:38;19.20;99.90
21616;DHT22;10970;48.714;9.584;2022-08-19T12:51:08;19.10;99.90
21616;DHT22;10970;48.714;9.584;2022-08-19T12:53:35;19.10;99.90
21616;DHT22;10970;48.714;9.584;2022-08-19T12:56:01;19.10;99.90
21616;DHT22;10970;48.714;9.584;2022-08-19T12:58:27;18.90;99.90
21616;DHT22;10970;48.714;9.584;2022-08-19T13:00:54;19.00;99.90
21616;DHT22;10970;48.714;9.584;2022-08-19T13:03:20;19.00;99.90
21616;DHT22;10970;48.714;9.584;2022-08-19T13:05:47;19.10;99.90
21616;DHT22;10970;48.714;9.584;2022-08-19T13:08:15;19.10;99.90
21616;DHT22;10970;48.714;9.584;2022-08-19T13:10:42;19.00;99.90
21616;DHT22;10970;48.714;9.584;2022-08-19T13:13:09;19.00;99.90
21616;DHT22;10970;48.714;9.584;2022-08-19T13:15:36;19.00;99.90
21616;DHT22;10970;48.714;9.584;2022-08-19T13:18:02;19.00;99.90
21616;DHT22;10970;48.714;9.584;2022-08-19T13:20:28;19.00;99.90
21616;DHT22;10970;48.714;9.584;2022-08-19T13:22:54;19.00;99.90
21616;DHT22;10970;48.714;9.584;2022-08-19T13:25:21;18.90;99.90
21616;DHT22;10970;48.714;9.584;2022-08-19T13:27:48;19.00;99.90
21616;DHT22;10970;48.714;9.584;2022-08-19T13:30:15;19.10;99.90
21616;DHT22;10970;48.714;9.584;2022-08-19T13:33:01;19.10;99.90
21616;DHT22;10970;48.714;9.584;2022-08-19T13:36:19;19.20;99.90
21616;DHT22;10970;48.714;9.584;2022-08-19T13:38:27;19.10;99.90
21616;DHT22;10970;48.714;9.584;2022-08-19T13:40:54;19.10;99.90
21616;DHT22;10970;48.714;9.584;2022-08-19T13:43:22;19.20;99.90
21616;DHT22;10970;48.714;9.584;2022-08-19T13:45:50;19.20;99.90
21616;DHT22;10970;48.714;9.584;2022-08-19T13:48:15;19.10;99.90
21616;DHT22;10970;48.714;9.584;2022-08-19T13:50:46;19.10;99.90
21616;DHT22;10970;48.714;9.584;2022-08-19T13:53:13;19.10;99.90
21616;DHT22;10970;48.714;9.584;2022-08-19T13:55:41;19.10;99.90
21616;DHT22;10970;48.714;9.584;2022-08-19T13:58:08;19.10;99.90
21616;DHT22;10970;48.714;9.584;2022-08-19T14:00:38;19.10;99.90
21616;DHT22;10970;48.714;9.584;2022-08-19T14:03:04;19.20;99.90
21616;DHT22;10970;48.714;9.584;2022-08-19T14:05:30;19.20;99.90
21616;DHT22;10970;48.714;9.584;2022-08-19T14:07:56;19.20;99.90
21616;DHT22;10970;48.714;9.584;2022-08-19T14:10:23;19.20;99.90
21616;DHT22;10970;48.714;9.584;2022-08-19T14:12:49;19.10;99.90
21616;DHT22;10970;48.714;9.584;2022-08-19T14:15:15;19.10;99.90
21616;DHT22;10970;48.714;9.584;2022-08-19T14:17:43;19.10;99.90
21616;DHT22;10970;48.714;9.584;2022-08-19T14:20:11;19.10;99.90
21616;DHT22;10970;48.714;9.584;2022-08-19T14:22:39;19.10;99.90
21616;DHT22;10970;48.714;9.584;2022-08-19T14:25:07;19.10;99.90
21616;DHT22;10970;48.714;9.584;2022-08-19T14:27:38;19.20;99.90
21616;DHT22;10970;48.714;9.584;2022-08-19T14:30:08;19.20;99.90
21616;DHT22;10970;48.714;9.584;2022-08-19T14:32:34;19.20;99.90
21616;DHT22;10970;48.714;9.584;2022-08-19T14:35:01;19.20;99.90
21616;DHT22;10970;48.714;9.584;2022-08-19T14:37:26;19.20;99.90
21616;DHT22;10970;48.714;9.584;2022-08-19T14:39:52;19.20;99.90
21616;DHT22;10970;48.714;9.584;2022-08-19T14:42:19;19.30;99.90
21616;DHT22;10970;48.714;9.584;2022-08-19T14:44:45;19.40;99.90
21616;DHT22;10970;48.714;9.584;2022-08-19T14:47:11;19.60;99.90
21616;DHT22;10970;48.714;9.584;2022-08-19T14:49:37;19.60;99.90
21616;DHT22;10970;48.714;9.584;2022-08-19T14:52:03;19.70;99.90
21616;DHT22;10970;48.714;9.584;2022-08-19T14:54:29;19.70;99.90
21616;DHT22;10970;48.714;9.584;2022-08-19T14:56:55;19.80;99.90
21616;DHT22;10970;48.714;9.584;2022-08-19T14:59:20;19.80;99.90
21616;DHT22;10970;48.714;9.584;2022-08-19T15:01:46;19.80;99.90
21616;DHT22;10970;48.714;9.584;2022-08-19T15:04:12;19.80;99.90
21616;DHT22;10970;48.714;9.584;2022-08-19T15:06:38;19.70;99.90
21616;DHT22;10970;48.714;9.584;2022-08-19T15:09:04;19.70;99.90
21616;DHT22;10970;48.714;9.584;2022-08-19T15:11:30;19.60;99.90
21616;DHT22;10970;48.714;9.584;2022-08-19T15:13:58;19.50;99.90
21616;DHT22;10970;48.714;9.584;2022-08-19T15:16:26;19.50;99.90
21616;DHT22;10970;48.714;9.584;2022-08-19T15:18:54;19.50;99.90
21616;DHT22;10970;48.714;9.584;2022-08-19T15:21:20;19.50;99.90
21616;DHT22;10970;48.714;9.584;2022-08-19T15:23:48;19.50;99.90
21616;DHT22;10970;48.714;9.584;2022-08-19T15:26:15;19.60;99.90
21616;DHT22;10970;48.714;9.584;2022-08-19T15:28:41;19.70;99.90
21616;DHT22;10970;48.714;9.584;2022-08-19T15:31:07;19.70;99.90
21616;DHT22;10970;48.714;9.584;2022-08-19T15:33:35;19.70;99.90
21616;DHT22;10970;48.714;9.584;2022-08-19T15:36:06;19.90;99.90
21616;DHT22;10970;48.714;9.584;2022-08-19T15:38:33;19.80;99.90
21616;DHT22;10970;48.714;9.584;2022-08-19T15:41:01;19.80;99.90
21616;DHT22;10970;48.714;9.584;2022-08-19T15:43:46;19.80;99.90
21616;DHT22;10970;48.714;9.584;2022-08-19T15:46:16;19.80;99.90
21616;DHT22;10970;48.714;9.584;2022-08-19T15:48:43;19.40;99.90
21616;DHT22;10970;48.714;9.584;2022-08-19T15:51:09;19.50;99.90
21616;DHT22;10970;48.714;9.584;2022-08-19T15:53:34;19.60;99.90
21616;DHT22;10970;48.714;9.584;2022-08-19T15:56:00;19.60;99.90